Glencoe, Missouri
Current Conditions -  °F | °C
As of 2:54 AM on Friday 28 Nov 2014 (Local Time) from KSUS Reporting Station
Scattered Clouds Scattered Clouds  
Wind Chill: 19°   Ceiling: Unl
Heat Index: 27°   Visibility: 10mi
Dew Point: 21°   Wind: 7mph
Humidity: 78%   Direction: 100°E
Pressure: 30.35"   Gusts: NA
Location:  38.54°N, 90.62°W
Report Text: KSUS 280854Z AUTO 10006KT 10SM SCT065 M03/M06 A3035 RMK AO2 SLP286 T10281061 58016
Loading
Personal Weather Stations






























Interactive Weather Map New forecast layout! Learn more

10-Day Weather Forecast

Advertisements
Track Severe Weather on mobile